• Join FlightAware (Why Join?)
  • Login
  • US Flag 
11:49PM EDT


 

Airport Tracker/Info


-or-


 

Live Flight TrackerFlight Track Log ✈ N589H ✈ 17-Apr-2014 ✈ KSUA - KPIE

Flight Track Log - Related Links

Times and Time Zones

All times are in EDT time to prevent confusion due to time zone crossing. See the N589H flight status page for this flight to view local times or setup timezone preferences in your user account.

Time Position Orientation Groundspeed Altitude Reporting Facility
EDT Latitude Longitude Course Direction KTS MPH feet Rate Location/Type
02:47PM 27.1703 -80.1883 94° East 154 177 1,500  Level Miami Center
02:48PM 27.1672 -80.1392 94° East 165 190 3,500 1,740 Climbing Miami Center
02:49PM 27.2067 -80.1472 350° North 153 176 5,000 1,260 Climbing Miami Center
02:50PM 27.2236 -80.2272 283° West 183 211 6,100 1,320 Climbing Miami Center
02:51PM 27.2364 -80.3047 281° West 232 267 7,700 1,560 Climbing Miami Center
02:52PM 27.2469 -80.3844 278° West 259 298 9,300 1,800 Climbing Miami Center
02:53PM 27.2536 -80.4547 276° West 259 298 11,300 1,980 Climbing Miami Center
02:54PM 27.2642 -80.5297 279° West 254 292 13,300 2,100 Climbing Miami Center
02:55PM 27.2747 -80.6167 278° West 254 292 15,600 2,100 Climbing Miami Center
02:56PM 27.2831 -80.6917 277° West 254 292 17,500 1,140 Climbing Miami Center
02:57PM 27.2997 -80.7717 283° West 254 292 17,900 240 Climbing Miami Center
02:58PM 27.3306 -80.8614 291° West 285 328 18,000  Climbing Miami Center
02:59PM 27.3489 -80.9533 283° West 297 342 18,000  Level Miami Center
03:00PM 27.3650 -81.0472 281° West 304 350 18,000 -60 Level Miami Center
03:01PM 27.3728 -81.1411 275° West 304 350 17,900 -540 Descending Miami Center
03:02PM 27.3761 -81.2347 272° West 304 350 17,000 -960 Descending Miami Center
03:03PM 27.4089 -81.3250 292° West 309 356 16,000 -1,080 Descending Miami Center
03:04PM 27.4544 -81.4086 302° West 314 361 14,900 -1,080 Descending Miami Center
03:05PM 27.4892 -81.4967 294° West 314 361 13,900 -1,020 Descending Miami Center
03:06PM 27.4944 -81.5903 274° West 308 354 12,900 -960 Descending Miami Center
03:07PM 27.5019 -81.6797 275° West 296 341 12,000 -900 Descending Miami Center
03:08PM 27.5094 -81.7642 276° West 291 335 11,100 -960 Descending Miami Center
03:09PM 27.5064 -81.8553 268° West 291 335 10,100 -600 Descending Miami Center
03:10PM 27.4867 -81.9433 256° West 291 335 10,000 -300 Descending Miami Center
03:11PM 27.4708 -82.0339 259° West 291 335 9,500 -960 Descending Miami Center
03:12PM 27.4556 -82.1106 257° West 291 335 8,100 -780 Descending Miami Center
03:13PM 27.4967 -82.1872 301° West 279 321 8,000 -60 Descending Miami Center
03:14PM 27.5528 -82.2458 317° Northwest 268 308 8,000 -300 Level Miami Center
03:15PM 27.5728 -82.3289 285° West 268 308 7,500 -840 Descending Miami Center
03:16PM 27.5833 -82.3833 282° West 282 325 6,800 -1,080 Descending Tampa TRACON
03:17PM 27.5833 -82.4667 270° West 286 329 5,900 -960 Descending Tampa TRACON
03:18PM 27.6000 -82.5500 283° West 265 305 4,900 -960 Descending Tampa TRACON
03:19PM 27.6167 -82.6167 286° West 227 261 4,100 -660 Descending Tampa TRACON
03:19PM 27.6119 -82.6564 262° West 255 293 4,000 -120 Descending Miami Center
03:20PM 27.6217 -82.7247 279° West 241 277 4,000  Level Miami Center
03:22PM 27.6333 -82.8500 276° West 225 259 4,000  Level Tampa TRACON
03:23PM 27.6667 -82.8833 318° Northwest 185 213 4,000  Level Tampa TRACON
03:24PM 27.7167 -82.9167 329° Northwest 190 219 4,000  Level Tampa TRACON
03:25PM 27.7667 -82.9333 344° North 197 227 4,000  Level Tampa TRACON
03:26PM 27.8167 -82.9667 329° Northwest 199 229 4,000  Level Tampa TRACON
03:27PM 27.8667 -83.0000 329° Northwest 204 235 4,000 -180 Level Tampa TRACON
03:28PM 27.9167 -83.0000 360° North 196 226 3,700 -600 Descending Tampa TRACON
03:29PM 27.9333 -82.9500 69° East 157 181 2,900 -900 Descending Tampa TRACON
03:30PM 27.9333 -82.9000 90° East 162 186 2,000 -480 Descending Tampa TRACON
03:31PM 27.9167 -82.8500 111° Southeast 157 181 2,000 -60 Level Tampa TRACON
03:32PM 27.9000 -82.8000 111° Southeast 158 182 1,900 -420 Descending Tampa TRACON
03:33PM 27.9000 -82.7667 90° East 149 171 1,200 -720 Descending Tampa TRACON
03:34PM 27.9167 -82.7167 69° East 130 150 500 -720 Descending Tampa TRACON